Time;durP1;ratioP1;P1;durP2;ratioP2;P2;SDS_P1;SDS_P2;PMS_P1;PMS_P2;Temp;Humidity;BMP_temperature;BMP_pressure;BME280_temperature;BME280_humidity;BME280_pressure;Samples;Min_cycle;Max_cycle;Signal;HPM_P1;HPM_P2
2023/03/29 00:00:15;;;;;;;6.20;3.27;;;5.20;1.00;;;;;;5066946;28;20191;-54
2023/03/29 00:02:46;;;;;;;4.23;3.37;;;5.20;1.00;;;;;;5060324;28;20192;-54
2023/03/29 00:05:13;;;;;;;6.10;2.97;;;5.20;1.00;;;;;;5064608;28;20442;-54
2023/03/29 00:07:40;;;;;;;7.80;4.17;;;5.20;1.00;;;;;;5063586;28;20930;-53
2023/03/29 00:10:07;;;;;;;4.40;3.10;;;5.20;1.00;;;;;;5080948;28;20442;-53
2023/03/29 00:12:32;;;;;;;6.37;3.60;;;5.10;1.00;;;;;;5064039;28;20887;-54
2023/03/29 00:14:58;;;;;;;6.20;3.20;;;5.20;1.00;;;;;;5061103;28;20453;-56
2023/03/29 00:17:24;;;;;;;4.27;3.30;;;5.10;1.00;;;;;;5059001;28;20188;-55
2023/03/29 00:19:49;;;;;;;3.90;2.80;;;5.20;1.00;;;;;;5062044;28;20454;-54
2023/03/29 00:22:15;;;;;;;6.33;3.30;;;5.10;1.00;;;;;;5065001;28;20220;-53
2023/03/29 00:24:41;;;;;;;6.40;2.87;;;5.10;1.00;;;;;;5063463;28;20206;-54
2023/03/29 00:27:06;;;;;;;3.47;2.97;;;5.20;1.00;;;;;;5062634;28;20869;-54
2023/03/29 00:29:32;;;;;;;3.90;3.13;;;5.10;1.00;;;;;;5068663;28;20184;-53
2023/03/29 00:31:58;;;;;;;4.93;3.00;;;5.10;1.00;;;;;;5063456;28;20210;-54
2023/03/29 00:34:29;;;;;;;7.00;2.93;;;5.20;1.00;;;;;;5057280;28;20758;-55
2023/03/29 00:36:56;;;;;;;6.53;3.77;;;5.10;1.00;;;;;;5054815;28;20451;-55
2023/03/29 00:39:24;;;;;;;9.47;4.03;;;5.10;1.00;;;;;;5066590;28;20441;-56
2023/03/29 00:41:50;;;;;;;4.00;2.90;;;5.00;1.00;;;;;;5067321;28;20504;-53
2023/03/29 00:44:52;;;;;;;3.83;3.10;;;5.00;1.00;;;;;;5065237;28;20449;-52
2023/03/29 00:47:25;;;;;;;3.20;2.63;;;5.00;1.00;;;;;;5067816;28;20191;-56
2023/03/29 00:49:52;;;;;;;6.53;3.00;;;5.00;1.00;;;;;;5067665;28;20505;-54
2023/03/29 00:52:22;;;;;;;6.83;2.80;;;5.00;1.00;;;;;;5067483;28;20607;-56
2023/03/29 00:54:57;;;;;;;4.03;3.20;;;4.90;1.00;;;;;;5071060;28;20556;-53
2023/03/29 00:57:25;;;;;;;5.90;2.87;;;4.80;1.00;;;;;;5074664;28;20497;-56
2023/03/29 00:59:51;;;;;;;3.23;2.67;;;4.80;1.00;;;;;;5070460;28;20503;-56
2023/03/29 01:02:22;;;;;;;4.10;2.53;;;4.80;1.00;;;;;;5064387;28;20465;-54
2023/03/29 01:04:54;;;;;;;4.80;2.60;;;4.70;1.00;;;;;;5064602;28;20470;-54
2023/03/29 01:07:22;;;;;;;4.37;2.80;;;4.80;1.00;;;;;;5067830;28;20437;-54
2023/03/29 01:09:54;;;;;;;3.40;2.40;;;4.80;1.00;;;;;;5077197;28;20468;-56
2023/03/29 01:12:23;;;;;;;4.90;2.60;;;4.70;1.00;;;;;;5064628;28;20544;-56
2023/03/29 01:14:57;;;;;;;6.37;2.60;;;4.80;1.00;;;;;;5061693;28;21181;-54
2023/03/29 01:17:24;;;;;;;4.93;2.70;;;4.80;1.00;;;;;;5070071;28;20558;-55
2023/03/29 01:20:07;;;;;;;9.70;3.20;;;4.80;1.00;;;;;;5065018;28;20866;-54
2023/03/29 01:22:45;;;;;;;4.87;2.60;;;4.80;1.00;;;;;;5070104;28;20450;-53
2023/03/29 01:25:38;;;;;;;4.83;2.37;;;4.80;1.00;;;;;;5064958;28;20447;-55
2023/03/29 01:28:20;;;;;;;5.90;3.30;;;4.70;1.00;;;;;;5068241;28;21016;-54
2023/03/29 01:30:50;;;;;;;9.40;3.00;;;4.70;1.00;;;;;;5066448;28;20453;-54
2023/03/29 01:33:20;;;;;;;6.70;3.70;;;4.70;1.00;;;;;;5066910;28;20457;-54
2023/03/29 01:35:56;;;;;;;4.53;2.90;;;4.70;1.00;;;;;;5066051;28;20441;-53
2023/03/29 01:38:44;;;;;;;5.77;3.00;;;4.70;1.00;;;;;;5075076;28;20448;-54
2023/03/29 01:41:11;;;;;;;7.60;3.27;;;4.70;1.00;;;;;;5070375;28;20497;-52
2023/03/29 01:43:57;;;;;;;5.63;3.40;;;4.70;1.00;;;;;;5069852;28;20446;-55
2023/03/29 01:47:00;;;;;;;6.90;3.17;;;4.60;1.00;;;;;;5069150;28;20442;-55
2023/03/29 01:50:07;;;;;;;5.37;3.07;;;4.60;1.00;;;;;;5066240;28;20487;-52
2023/03/29 01:52:43;;;;;;;4.57;3.03;;;4.50;1.00;;;;;;5063726;28;20442;-53
2023/03/29 01:55:14;;;;;;;4.73;3.20;;;4.50;1.00;;;;;;5084114;28;20473;-53
2023/03/29 01:57:43;;;;;;;5.77;3.30;;;4.50;1.00;;;;;;5067314;28;20442;-53
2023/03/29 02:00:17;;;;;;;7.17;4.10;;;4.50;1.00;;;;;;5082925;28;20790;-54
2023/03/29 02:02:46;;;;;;;6.47;3.63;;;4.50;1.00;;;;;;5074593;28;20480;-56
2023/03/29 02:05:13;;;;;;;6.80;3.57;;;4.50;1.00;;;;;;5074905;28;20935;-54
2023/03/29 02:07:42;;;;;;;8.93;3.53;;;4.50;1.00;;;;;;5060714;28;20534;-54
2023/03/29 02:10:10;;;;;;;5.13;4.17;;;4.50;1.00;;;;;;5068704;28;20974;-53
2023/03/29 02:12:36;;;;;;;5.77;3.30;;;4.50;1.00;;;;;;5076028;28;21045;-55
2023/03/29 02:15:05;;;;;;;6.57;3.40;;;4.60;1.00;;;;;;5068122;28;20801;-53
2023/03/29 02:17:31;;;;;;;7.60;3.60;;;4.70;1.00;;;;;;5065232;28;20442;-55
2023/03/29 02:20:21;;;;;;;7.67;2.97;;;4.70;1.00;;;;;;5066486;28;21422;-55
2023/03/29 02:23:00;;;;;;;9.63;3.10;;;4.70;1.00;;;;;;5064848;28;20199;-56
2023/03/29 02:25:27;;;;;;;5.20;3.73;;;4.70;1.00;;;;;;5066255;28;20941;-52
2023/03/29 02:27:53;;;;;;;6.50;3.17;;;4.70;1.00;;;;;;5068972;28;20470;-52
2023/03/29 02:30:19;;;;;;;9.07;3.90;;;4.60;1.00;;;;;;5066664;28;20528;-54
2023/03/29 02:33:05;;;;;;;6.27;3.77;;;4.70;1.00;;;;;;5066040;28;20944;-54
2023/03/29 02:35:39;;;;;;;4.87;3.40;;;4.70;1.00;;;;;;5070250;28;20488;-55
2023/03/29 02:38:09;;;;;;;5.57;3.43;;;4.70;1.00;;;;;;5072369;28;20477;-55
2023/03/29 02:40:37;;;;;;;6.00;3.30;;;4.60;1.00;;;;;;5067796;28;20979;-56
2023/03/29 02:43:06;;;;;;;6.97;2.77;;;4.60;1.00;;;;;;5067719;28;20481;-55
2023/03/29 02:45:33;;;;;;;8.20;3.43;;;4.60;1.00;;;;;;5061471;28;20465;-55
2023/03/29 02:48:05;;;;;;;9.73;4.00;;;4.60;1.00;;;;;;5065086;28;20435;-53
2023/03/29 02:50:35;;;;;;;7.97;3.17;;;4.70;1.00;;;;;;5068266;28;20430;-55
2023/03/29 02:53:08;;;;;;;7.90;3.47;;;4.70;1.00;;;;;;5065461;28;20442;-53
2023/03/29 02:55:34;;;;;;;5.07;3.20;;;4.70;1.00;;;;;;5062098;28;20454;-56
2023/03/29 02:58:07;;;;;;;5.83;3.67;;;4.70;1.00;;;;;;5063396;28;20446;-53
2023/03/29 03:00:35;;;;;;;7.63;3.73;;;4.80;1.00;;;;;;5066612;28;20544;-55
2023/03/29 03:03:02;;;;;;;8.93;2.90;;;4.80;1.00;;;;;;5063307;28;20445;-54
2023/03/29 03:05:27;;;;;;;3.90;3.10;;;4.90;1.00;;;;;;5072167;28;20521;-54
2023/03/29 03:07:53;;;;;;;6.37;3.60;;;4.80;1.00;;;;;;5058250;28;20443;-54
2023/03/29 03:10:18;;;;;;;3.80;3.17;;;4.80;1.00;;;;;;5065326;28;20203;-54
2023/03/29 03:12:44;;;;;;;8.83;4.43;;;4.90;1.00;;;;;;5065842;28;20274;-53
2023/03/29 03:15:10;;;;;;;8.43;3.20;;;5.00;1.00;;;;;;5067041;28;20184;-56
2023/03/29 03:17:38;;;;;;;3.90;3.00;;;4.90;1.00;;;;;;5064095;28;20195;-56
2023/03/29 03:20:11;;;;;;;7.75;4.00;;;4.90;1.00;;;;;;5066908;28;20437;-55
2023/03/29 03:22:38;;;;;;;7.33;3.27;;;5.00;1.00;;;;;;5063632;28;20533;-53
2023/03/29 03:25:04;;;;;;;4.50;3.20;;;5.10;1.00;;;;;;5064596;28;20958;-54
2023/03/29 03:27:29;;;;;;;4.10;3.43;;;5.00;1.00;;;;;;5065484;28;20491;-54
2023/03/29 03:29:55;;;;;;;7.40;3.90;;;4.90;1.00;;;;;;5066223;28;20450;-53
2023/03/29 03:32:20;;;;;;;5.33;3.93;;;4.90;1.00;;;;;;5063123;28;20176;-52
2023/03/29 03:34:46;;;;;;;8.80;3.37;;;5.70;1.00;;;;;;5064131;28;20513;-53
2023/03/29 03:37:12;;;;;;;5.93;3.60;;;4.90;1.00;;;;;;5060308;28;20192;-53
2023/03/29 03:39:37;;;;;;;9.37;3.60;;;4.90;1.00;;;;;;5067198;28;20184;-54
2023/03/29 03:42:03;;;;;;;6.70;3.70;;;4.90;1.00;;;;;;5067621;28;20216;-54
2023/03/29 03:44:29;;;;;;;9.67;4.33;;;5.00;1.00;;;;;;5074450;28;20778;-54
2023/03/29 03:46:55;;;;;;;5.10;3.30;;;4.90;1.00;;;;;;5062864;28;20180;-55
2023/03/29 03:49:21;;;;;;;4.37;3.50;;;4.90;1.00;;;;;;5064524;28;20446;-55
2023/03/29 03:51:46;;;;;;;6.10;4.00;;;4.90;1.00;;;;;;5062068;28;20519;-54
2023/03/29 03:54:12;;;;;;;3.93;3.30;;;4.90;1.00;;;;;;5064030;28;20492;-57
2023/03/29 03:56:38;;;;;;;7.73;3.40;;;4.90;1.00;;;;;;5066946;28;20330;-55
2023/03/29 03:59:04;;;;;;;4.67;3.70;;;4.80;1.00;;;;;;5064819;28;20764;-53
2023/03/29 04:01:29;;;;;;;6.63;3.93;;;4.80;1.00;;;;;;5068407;28;20211;-53
2023/03/29 04:03:55;;;;;;;7.87;4.43;;;4.80;1.00;;;;;;5067248;28;20450;-54
2023/03/29 04:06:21;;;;;;;6.10;3.27;;;4.80;1.00;;;;;;5065818;28;20303;-53
2023/03/29 04:08:47;;;;;;;7.10;4.23;;;4.80;1.00;;;;;;5059257;28;20187;-56
2023/03/29 04:11:12;;;;;;;6.27;3.87;;;4.80;1.00;;;;;;5068789;28;20477;-55
2023/03/29 04:13:38;;;;;;;5.23;3.97;;;4.80;1.00;;;;;;5066637;28;20310;-54
2023/03/29 04:16:05;;;;;;;7.83;3.93;;;4.70;1.00;;;;;;5065272;28;20241;-53
2023/03/29 04:18:31;;;;;;;6.80;3.97;;;4.70;1.00;;;;;;5063325;28;20268;-56
2023/03/29 04:20:57;;;;;;;21.10;4.80;;;4.80;1.00;;;;;;5066542;28;20512;-55
2023/03/29 04:23:22;;;;;;;8.13;3.83;;;4.80;1.00;;;;;;5064195;28;20195;-56
2023/03/29 04:25:48;;;;;;;12.80;4.10;;;4.80;1.00;;;;;;5068989;28;20268;-52
2023/03/29 04:28:14;;;;;;;6.83;4.10;;;4.90;1.00;;;;;;5064672;28;20187;-52
2023/03/29 04:30:40;;;;;;;11.97;4.97;;;4.90;1.00;;;;;;5063823;28;20629;-53
2023/03/29 04:33:05;;;;;;;5.60;4.30;;;4.80;1.00;;;;;;5066398;28;20452;-54
2023/03/29 04:35:32;;;;;;;9.03;4.97;;;4.90;1.00;;;;;;5061421;28;20970;-53
2023/03/29 04:37:57;;;;;;;7.27;4.03;;;4.90;1.00;;;;;;5058151;28;20211;-53
2023/03/29 04:40:23;;;;;;;10.13;4.77;;;4.90;1.00;;;;;;5067316;28;21038;-53
2023/03/29 04:42:50;;;;;;;8.80;4.37;;;5.00;1.00;;;;;;5072753;28;20550;-53
2023/03/29 04:45:16;;;;;;;8.50;4.60;;;5.00;1.00;;;;;;5064790;28;20207;-53
2023/03/29 04:47:44;;;;;;;8.67;5.00;;;5.00;1.00;;;;;;5062999;28;22186;-56
2023/03/29 04:50:10;;;;;;;7.50;4.30;;;5.00;1.00;;;;;;5064760;28;20796;-55
2023/03/29 04:52:36;;;;;;;9.63;4.53;;;5.10;1.00;;;;;;5064583;28;20451;-55
2023/03/29 04:55:04;;;;;;;6.93;4.07;;;5.20;1.00;;;;;;5069149;28;20481;-58
2023/03/29 04:57:29;;;;;;;6.37;4.40;;;5.20;1.00;;;;;;5072291;28;20446;-53
2023/03/29 04:59:55;;;;;;;7.73;4.80;;;5.30;1.00;;;;;;5065302;28;20457;-54
2023/03/29 05:02:21;;;;;;;6.70;3.90;;;5.30;1.00;;;;;;5062907;28;20574;-55
2023/03/29 05:04:47;;;;;;;6.90;4.20;;;5.20;1.00;;;;;;5067827;28;20470;-52
2023/03/29 05:07:14;;;;;;;9.30;4.70;;;5.30;1.00;;;;;;5065835;28;20237;-55
2023/03/29 05:09:41;;;;;;;5.43;4.00;;;5.30;1.00;;;;;;5063719;28;20196;-52
2023/03/29 05:12:07;;;;;;;11.30;4.50;;;5.30;1.00;;;;;;5065160;28;20458;-53
2023/03/29 05:14:33;;;;;;;5.80;3.83;;;5.30;1.00;;;;;;5063408;28;20511;-54
2023/03/29 05:16:58;;;;;;;7.07;4.20;;;5.50;1.00;;;;;;5063776;28;20501;-53
2023/03/29 05:19:24;;;;;;;5.47;3.97;;;5.50;1.00;;;;;;5066951;28;20579;-54
2023/03/29 05:21:51;;;;;;;8.50;3.70;;;5.50;1.00;;;;;;5058028;28;20223;-56
2023/03/29 05:24:18;;;;;;;6.20;3.90;;;5.50;1.00;;;;;;5068430;28;20458;-53
2023/03/29 05:26:45;;;;;;;6.90;3.93;;;5.60;1.00;;;;;;5064953;28;20532;-53
2023/03/29 05:29:11;;;;;;;5.90;3.77;;;5.70;1.00;;;;;;5070267;28;20549;-55
2023/03/29 05:31:36;;;;;;;10.13;4.07;;;5.70;1.00;;;;;;5068611;28;20485;-56
2023/03/29 05:34:03;;;;;;;10.10;3.90;;;5.80;1.00;;;;;;5070278;28;20605;-52
2023/03/29 05:36:29;;;;;;;6.93;4.10;;;5.70;1.00;;;;;;5070340;28;20196;-53
2023/03/29 05:38:55;;;;;;;10.33;4.00;;;5.70;1.00;;;;;;5069967;28;20445;-56
2023/03/29 05:41:22;;;;;;;10.30;4.67;;;5.80;1.00;;;;;;5068025;28;20220;-55
2023/03/29 05:43:48;;;;;;;7.23;4.40;;;5.90;1.00;;;;;;5067875;28;20450;-56
2023/03/29 05:46:14;;;;;;;7.03;4.10;;;5.90;1.00;;;;;;5066363;28;20446;-57
2023/03/29 05:48:40;;;;;;;6.03;3.63;;;6.00;1.00;;;;;;5070051;28;20184;-55
2023/03/29 05:51:06;;;;;;;10.13;5.50;;;6.10;1.00;;;;;;5066860;28;20270;-53
2023/03/29 05:53:32;;;;;;;6.97;5.60;;;6.10;1.00;;;;;;5065100;28;20630;-54
2023/03/29 05:56:35;;;;;;;8.27;4.30;;;6.20;1.00;;;;;;5070305;28;20269;-52
2023/03/29 05:59:01;;;;;;;6.17;3.87;;;6.40;1.00;;;;;;5070727;28;20946;-54
2023/03/29 06:01:27;;;;;;;13.30;4.30;;;6.20;1.00;;;;;;5070260;28;20470;-54
2023/03/29 06:03:53;;;;;;;8.10;4.10;;;6.30;1.00;;;;;;5069111;28;20188;-55
2023/03/29 06:06:20;;;;;;;5.40;3.30;;;6.30;1.00;;;;;;5071772;28;20528;-55
2023/03/29 06:08:46;;;;;;;5.90;3.73;;;6.30;1.00;;;;;;5067809;28;20484;-55
2023/03/29 06:11:12;;;;;;;4.43;4.03;;;6.40;1.00;;;;;;5064678;28;20476;-53
2023/03/29 06:13:38;;;;;;;9.43;4.50;;;6.40;1.00;;;;;;5065137;28;20453;-55
2023/03/29 06:16:05;;;;;;;11.40;4.30;;;6.30;1.00;;;;;;5063655;28;20218;-54
2023/03/29 06:18:31;;;;;;;4.90;4.00;;;6.40;1.00;;;;;;5065258;28;20450;-53
2023/03/29 06:20:57;;;;;;;11.70;5.20;;;6.50;1.00;;;;;;5066332;28;20470;-56
2023/03/29 06:23:23;;;;;;;7.40;3.80;;;6.60;1.00;;;;;;5068002;28;20577;-53
2023/03/29 06:25:52;;;;;;;9.83;4.40;;;6.60;1.00;;;;;;5075870;28;20207;-55
2023/03/29 06:28:18;;;;;;;6.20;3.97;;;6.70;1.00;;;;;;5067522;28;20484;-55
2023/03/29 06:30:48;;;;;;;7.33;4.70;;;6.80;1.00;;;;;;5066781;28;20446;-52
2023/03/29 06:33:14;;;;;;;14.63;4.87;;;6.80;99.90;;;;;;5068643;28;20610;-53
2023/03/29 06:35:44;;;;;;;8.67;4.63;;;6.80;99.90;;;;;;5065452;28;20453;-55
2023/03/29 06:38:10;;;;;;;7.17;3.93;;;6.90;99.90;;;;;;5066076;28;20904;-55
2023/03/29 06:40:36;;;;;;;5.90;4.33;;;6.90;99.90;;;;;;5062656;28;20476;-54
2023/03/29 06:43:03;;;;;;;7.57;3.97;;;6.90;99.90;;;;;;5069200;28;20459;-53
2023/03/29 06:45:35;;;;;;;8.17;4.33;;;7.00;99.90;;;;;;5066179;28;20470;-54
2023/03/29 06:48:02;;;;;;;6.83;4.43;;;7.00;99.90;;;;;;5069981;28;20473;-55
2023/03/29 06:50:28;;;;;;;10.63;3.63;;;7.00;99.90;;;;;;5065266;28;20499;-53
2023/03/29 06:52:53;;;;;;;9.03;4.00;;;6.90;99.90;;;;;;5062341;28;20457;-55
2023/03/29 06:55:21;;;;;;;9.67;4.27;;;7.00;99.90;;;;;;5063108;28;20466;-52
2023/03/29 06:57:52;;;;;;;5.20;4.07;;;6.90;99.90;;;;;;5062311;28;20283;-53
2023/03/29 07:00:26;;;;;;;7.30;4.77;;;6.80;99.90;;;;;;5063494;28;20442;-56
2023/03/29 07:02:53;;;;;;;5.97;4.30;;;6.90;99.90;;;;;;5067387;28;20992;-54
2023/03/29 07:05:18;;;;;;;8.53;4.83;;;7.00;99.90;;;;;;5064374;28;20454;-53
2023/03/29 07:07:55;;;;;;;7.57;4.47;;;7.00;99.90;;;;;;5064453;28;20473;-55
2023/03/29 07:10:27;;;;;;;5.73;4.00;;;7.00;99.90;;;;;;5065017;28;20445;-54
2023/03/29 07:12:53;;;;;;;6.23;4.40;;;7.10;99.90;;;;;;5056603;28;20451;-55
2023/03/29 07:15:20;;;;;;;7.30;4.07;;;7.10;99.90;;;;;;5067641;28;20446;-56
2023/03/29 07:17:47;;;;;;;8.03;4.80;;;7.00;99.90;;;;;;5066174;28;20452;-54
2023/03/29 07:20:14;;;;;;;5.83;5.23;;;7.10;99.90;;;;;;5067186;28;20544;-55
2023/03/29 07:22:40;;;;;;;6.43;4.83;;;7.10;99.90;;;;;;5062212;28;20549;-53
2023/03/29 07:25:11;;;;;;;8.03;4.53;;;7.20;99.90;;;;;;5060018;28;20446;-53
2023/03/29 07:27:37;;;;;;;6.07;4.03;;;7.20;99.90;;;;;;5065163;28;20978;-54
2023/03/29 07:30:08;;;;;;;5.70;4.20;;;7.50;99.90;;;;;;5062770;28;20440;-53
2023/03/29 07:32:35;;;;;;;8.93;4.67;;;7.50;99.90;;;;;;5064212;28;20553;-54
2023/03/29 07:35:04;;;;;;;6.83;3.90;;;7.60;99.90;;;;;;5061790;28;20445;-54
2023/03/29 07:37:29;;;;;;;5.60;3.80;;;7.70;99.90;;;;;;5063132;28;20446;-54
2023/03/29 07:39:55;;;;;;;9.53;4.00;;;7.70;99.90;;;;;;5062313;28;20454;-54
2023/03/29 07:42:21;;;;;;;5.23;3.80;;;7.60;99.90;;;;;;5064680;28;20211;-54
2023/03/29 07:44:47;;;;;;;8.37;4.37;;;7.60;99.90;;;;;;5072381;28;20214;-53
2023/03/29 07:47:14;;;;;;;5.47;4.07;;;7.60;99.90;;;;;;5065071;28;20184;-54
2023/03/29 07:49:41;;;;;;;7.50;3.53;;;7.70;99.90;;;;;;5068491;28;20433;-55
2023/03/29 07:52:07;;;;;;;8.70;3.73;;;7.70;99.90;;;;;;5062784;28;21051;-54
2023/03/29 07:54:33;;;;;;;3.57;3.20;;;7.70;99.90;;;;;;5058564;28;20543;-55
2023/03/29 07:56:59;;;;;;;7.13;3.00;;;7.70;99.90;;;;;;5057216;28;20468;-54
2023/03/29 07:59:26;;;;;;;7.20;3.33;;;7.70;99.90;;;;;;5050700;28;20481;-52
2023/03/29 08:01:52;;;;;;;9.73;3.70;;;7.70;99.90;;;;;;5055136;28;21179;-55
2023/03/29 08:04:18;;;;;;;4.73;3.63;;;7.70;99.90;;;;;;5059762;28;20447;-54
2023/03/29 08:06:43;;;;;;;5.30;3.07;;;7.80;99.90;;;;;;5078338;28;20463;-53
2023/03/29 08:09:09;;;;;;;6.90;3.40;;;7.90;99.90;;;;;;5070910;28;20184;-54
2023/03/29 08:11:37;;;;;;;6.47;3.83;;;7.80;99.90;;;;;;5068453;28;20592;-53
2023/03/29 08:14:02;;;;;;;5.10;3.00;;;7.80;99.90;;;;;;5063202;28;20200;-54
2023/03/29 08:16:28;;;;;;;7.10;4.00;;;7.70;99.90;;;;;;5066045;28;20529;-54
2023/03/29 08:18:54;;;;;;;6.53;4.03;;;7.70;99.90;;;;;;5076948;28;20176;-55
2023/03/29 08:21:20;;;;;;;7.77;3.67;;;7.70;99.90;;;;;;5063611;28;20204;-55
2023/03/29 08:23:45;;;;;;;6.57;4.13;;;7.70;99.90;;;;;;5061891;28;20176;-55
2023/03/29 08:26:12;;;;;;;5.40;4.00;;;7.80;99.90;;;;;;5075676;28;20411;-56
2023/03/29 08:28:38;;;;;;;5.00;3.70;;;7.80;99.90;;;;;;5065740;28;20188;-54
2023/03/29 08:31:05;;;;;;;4.50;3.30;;;8.00;99.90;;;;;;5068949;28;20445;-53
2023/03/29 08:33:31;;;;;;;5.87;3.23;;;8.10;99.90;;;;;;5068698;28;20453;-54
2023/03/29 08:35:56;;;;;;;7.50;4.00;;;8.10;99.90;;;;;;5088193;28;20429;-55
2023/03/29 08:38:22;;;;;;;7.13;3.93;;;8.00;99.90;;;;;;5069993;28;20238;-53
2023/03/29 08:40:49;;;;;;;5.60;3.57;;;8.10;99.90;;;;;;5064544;28;20720;-54
2023/03/29 08:43:33;;;;;;;4.70;3.93;;;8.20;99.90;;;;;;5064833;28;20246;-55
2023/03/29 08:45:58;;;;;;;8.80;4.10;;;8.30;99.90;;;;;;5066855;28;20441;-54
2023/03/29 08:48:35;;;;;;;6.57;3.70;;;8.30;99.90;;;;;;5065242;28;20432;-53
2023/03/29 08:51:05;;;;;;;14.00;4.40;;;8.40;99.90;;;;;;5067824;28;20195;-54
2023/03/29 08:53:44;;;;;;;6.67;3.73;;;8.50;99.90;;;;;;5070653;28;20495;-53
2023/03/29 08:56:19;;;;;;;6.20;4.83;;;8.70;99.90;;;;;;5075135;28;20491;-53
2023/03/29 08:58:46;;;;;;;5.87;4.13;;;8.70;99.90;;;;;;5075919;28;20449;-53
2023/03/29 09:01:12;;;;;;;6.53;5.07;;;8.60;99.90;;;;;;5073316;28;20461;-56
2023/03/29 09:03:47;;;;;;;7.53;4.03;;;8.60;99.90;;;;;;5089799;28;20489;-55
2023/03/29 09:06:14;;;;;;;8.10;5.27;;;8.70;99.90;;;;;;5070069;28;20188;-55
2023/03/29 09:08:46;;;;;;;7.27;4.37;;;8.70;99.90;;;;;;5069952;28;20474;-55
2023/03/29 09:11:23;;;;;;;6.10;3.83;;;8.90;99.90;;;;;;5070392;28;20488;-54
2023/03/29 09:14:04;;;;;;;7.73;4.30;;;9.00;99.90;;;;;;5074633;28;20540;-55
2023/03/29 09:16:39;;;;;;;7.13;4.20;;;9.10;99.90;;;;;;5068888;28;20446;-53
2023/03/29 09:19:20;;;;;;;10.47;4.80;;;9.00;99.90;;;;;;5070117;28;20991;-55
2023/03/29 09:22:04;;;;;;;9.00;5.07;;;9.10;99.90;;;;;;5067354;28;20534;-54
2023/03/29 09:24:52;;;;;;;5.97;4.60;;;9.20;99.90;;;;;;5074844;28;20449;-56
2023/03/29 09:27:37;;;;;;;6.53;4.20;;;9.30;99.90;;;;;;5067216;28;20787;-55
2023/03/29 09:30:09;;;;;;;10.27;4.57;;;9.40;99.90;;;;;;5063082;28;20441;-54
2023/03/29 09:32:50;;;;;;;14.73;4.40;;;9.60;99.90;;;;;;5074602;28;20442;-54
2023/03/29 09:35:35;;;;;;;7.43;4.30;;;9.80;99.90;;;;;;5071775;28;20495;-54
2023/03/29 09:38:03;;;;;;;7.30;4.47;;;9.80;99.90;;;;;;5071440;28;20520;-53
2023/03/29 09:40:37;;;;;;;5.63;4.37;;;9.90;99.90;;;;;;5070364;28;20954;-53
2023/03/29 09:43:03;;;;;;;9.83;4.73;;;9.90;99.90;;;;;;5074941;28;20795;-54
2023/03/29 09:45:29;;;;;;;6.70;4.20;;;9.90;99.90;;;;;;5070739;28;21050;-55
2023/03/29 09:48:06;;;;;;;6.90;4.50;;;10.00;99.90;;;;;;5069546;28;20438;-55
2023/03/29 09:50:46;;;;;;;5.07;4.27;;;10.00;99.90;;;;;;5068523;28;20541;-54
2023/03/29 09:53:13;;;;;;;7.93;5.27;;;10.10;99.90;;;;;;5069335;28;20438;-56
2023/03/29 09:55:39;;;;;;;5.73;3.60;;;10.10;99.90;;;;;;5087951;28;20980;-56
2023/03/29 09:58:18;;;;;;;5.13;3.83;;;10.10;99.90;;;;;;5074449;28;20525;-55
2023/03/29 10:00:45;;;;;;;6.40;4.73;;;10.00;99.90;;;;;;5067684;28;20461;-55
2023/03/29 10:03:23;;;;;;;5.30;4.00;;;10.20;99.90;;;;;;5061341;28;20487;-53
2023/03/29 10:05:52;;;;;;;6.73;4.83;;;10.40;99.90;;;;;;5070380;28;20631;-54
2023/03/29 10:08:29;;;;;;;6.17;4.43;;;10.50;99.90;;;;;;5068966;28;20438;-55
2023/03/29 10:11:00;;;;;;;5.17;4.10;;;10.60;99.90;;;;;;5065284;28;20438;-57
2023/03/29 10:13:31;;;;;;;5.40;3.90;;;10.90;99.90;;;;;;5072406;28;20491;-53
2023/03/29 10:16:02;;;;;;;6.27;4.80;;;11.10;99.90;;;;;;5085240;28;20436;-56
2023/03/29 10:18:29;;;;;;;6.07;4.37;;;11.30;99.90;;;;;;5070930;28;20438;-56
2023/03/29 10:21:03;;;;;;;8.70;4.90;;;11.50;99.90;;;;;;5067515;28;20523;-56
2023/03/29 10:23:33;;;;;;;4.43;4.03;;;11.60;99.90;;;;;;5067596;28;20453;-56
2023/03/29 10:26:03;;;;;;;5.40;4.07;;;11.70;99.90;;;;;;5068404;28;20962;-56
2023/03/29 10:28:30;;;;;;;7.00;3.87;;;11.70;99.90;;;;;;5069507;28;20943;-56
2023/03/29 10:30:59;;;;;;;6.20;3.90;;;11.70;99.90;;;;;;5064818;28;20536;-56
2023/03/29 10:33:30;;;;;;;6.10;4.00;;;11.60;99.90;;;;;;5073629;28;20408;-56
2023/03/29 10:35:57;;;;;;;4.50;4.10;;;11.50;99.90;;;;;;5068787;28;20417;-55
2023/03/29 10:38:26;;;;;;;4.63;3.67;;;11.40;99.90;;;;;;5067152;28;20869;-56
2023/03/29 10:40:53;;;;;;;8.13;3.83;;;11.60;99.90;;;;;;5070180;28;20473;-58
2023/03/29 10:43:20;;;;;;;4.63;4.10;;;11.70;99.90;;;;;;5070467;28;20430;-56
2023/03/29 10:45:52;;;;;;;6.00;4.20;;;11.70;99.90;;;;;;5067650;28;20943;-56
2023/03/29 10:48:23;;;;;;;4.30;3.50;;;11.80;99.90;;;;;;5069266;28;20821;-56
2023/03/29 10:50:51;;;;;;;4.90;3.63;;;11.70;99.90;;;;;;5073200;28;20481;-56
2023/03/29 10:53:26;;;;;;;5.00;3.43;;;11.70;99.90;;;;;;5062280;28;20453;-56
2023/03/29 10:56:01;;;;;;;5.57;4.00;;;11.80;99.90;;;;;;5065108;28;20933;-56
2023/03/29 10:58:36;;;;;;;5.23;4.37;;;11.80;99.90;;;;;;5068439;28;20453;-56
2023/03/29 11:01:02;;;;;;;4.43;4.03;;;11.80;99.90;;;;;;5059122;28;21001;-56
2023/03/29 11:04:02;;;;;;;7.00;5.03;;;11.80;99.90;;;;;;5068349;28;20460;-55
2023/03/29 11:06:28;;;;;;;8.40;4.60;;;11.70;99.90;;;;;;5061332;28;20894;-53
2023/03/29 11:08:58;;;;;;;5.60;4.93;;;11.50;99.90;;;;;;5068310;28;20441;-56
2023/03/29 11:11:35;;;;;;;7.27;5.37;;;11.60;99.90;;;;;;5065573;28;20180;-54
2023/03/29 11:14:29;;;;;;;5.97;4.43;;;11.70;99.90;;;;;;5068613;28;20719;-54
2023/03/29 11:17:01;;;;;;;5.80;4.43;;;11.80;99.90;;;;;;5064605;28;20507;-54
2023/03/29 11:19:42;;;;;;;7.13;5.83;;;12.00;99.90;;;;;;5051831;28;20484;-54
2023/03/29 11:22:22;;;;;;;8.00;5.43;;;12.00;99.90;;;;;;5063730;28;20556;-57
2023/03/29 11:25:13;;;;;;;8.83;5.10;;;12.00;99.90;;;;;;5064133;28;20822;-56
2023/03/29 11:27:58;;;;;;;6.87;5.60;;;12.00;99.90;;;;;;5077792;28;20433;-56
2023/03/29 11:31:12;;;;;;;7.83;5.93;;;12.10;99.90;;;;;;5062074;28;20455;-56
2023/03/29 11:33:52;;;;;;;8.10;5.10;;;12.20;99.90;;;;;;5057125;28;20910;-56
2023/03/29 11:36:30;;;;;;;7.47;5.63;;;12.40;99.90;;;;;;5059210;28;20424;-55
2023/03/29 11:39:19;;;;;;;10.00;6.23;;;12.50;99.90;;;;;;5064885;28;20472;-55
2023/03/29 11:41:51;;;;;;;9.57;5.60;;;12.70;99.90;;;;;;5067495;28;20505;-55
2023/03/29 11:44:25;;;;;;;7.80;5.07;;;13.00;99.90;;;;;;5066685;28;20442;-56
2023/03/29 11:47:00;;;;;;;7.80;6.30;;;13.30;99.90;;;;;;5069372;28;20436;-54
2023/03/29 11:49:35;;;;;;;6.50;5.83;;;13.40;99.90;;;;;;5065708;28;20416;-51
2023/03/29 11:52:17;;;;;;;9.20;6.37;;;13.60;99.90;;;;;;5054168;28;20455;-55
2023/03/29 11:55:04;;;;;;;8.50;6.40;;;13.60;99.90;;;;;;5067558;28;20474;-53
2023/03/29 11:57:42;;;;;;;9.27;7.50;;;13.60;99.90;;;;;;5065395;28;20494;-54
2023/03/29 12:00:15;;;;;;;9.10;6.47;;;13.50;99.90;;;;;;5068587;28;20453;-55
2023/03/29 12:02:53;;;;;;;8.23;6.50;;;13.60;99.90;;;;;;5078413;28;20440;-54
2023/03/29 12:05:46;;;;;;;8.13;7.33;;;13.70;99.90;;;;;;5070774;28;20457;-54
2023/03/29 12:08:21;;;;;;;8.97;7.00;;;13.70;99.90;;;;;;5059396;28;20885;-55
2023/03/29 12:11:00;;;;;;;10.60;6.87;;;13.70;99.90;;;;;;5065027;28;20841;-54
2023/03/29 12:13:31;;;;;;;6.93;6.17;;;13.60;99.90;;;;;;5074794;28;20528;-55
2023/03/29 12:16:04;;;;;;;10.30;7.60;;;13.70;99.90;;;;;;5065965;28;20465;-54
2023/03/29 12:18:44;;;;;;;9.43;7.63;;;13.70;99.90;;;;;;5062391;28;20954;-55
2023/03/29 12:21:17;;;;;;;8.70;7.40;;;13.80;99.90;;;;;;5059552;28;20520;-54
2023/03/29 12:23:44;;;;;;;10.57;7.17;;;14.00;99.90;;;;;;5068660;28;20963;-53
2023/03/29 12:26:35;;;;;;;9.00;7.63;;;14.20;99.90;;;;;;5068634;28;20454;-55
2023/03/29 12:29:31;;;;;;;9.70;8.20;;;14.60;99.90;;;;;;5069184;28;20420;-54
2023/03/29 12:32:22;;;;;;;8.90;7.57;;;14.70;99.90;;;;;;5069246;28;20434;-54
2023/03/29 12:35:08;;;;;;;9.70;7.67;;;14.50;99.90;;;;;;5069120;28;20434;-53
2023/03/29 12:37:55;;;;;;;12.10;8.57;;;14.60;99.90;;;;;;5072124;28;20428;-55
2023/03/29 12:40:24;;;;;;;10.80;8.23;;;14.50;99.90;;;;;;5073166;28;20408;-56
2023/03/29 12:43:03;;;;;;;10.87;8.17;;;14.20;99.90;;;;;;5071199;28;20477;-56
2023/03/29 12:45:47;;;;;;;11.40;8.50;;;14.10;99.90;;;;;;5072936;28;20420;-56
2023/03/29 12:48:22;;;;;;;10.13;8.93;;;14.00;99.90;;;;;;5073814;28;20538;-56
2023/03/29 12:50:52;;;;;;;11.10;9.17;;;14.00;99.90;;;;;;5072143;28;20416;-55
2023/03/29 12:53:41;;;;;;;11.17;9.97;;;14.20;99.90;;;;;;5072675;28;20497;-56
2023/03/29 12:56:18;;;;;;;11.53;10.13;;;14.50;99.90;;;;;;5070324;28;20449;-56
2023/03/29 12:59:15;;;;;;;9.50;8.13;;;14.70;99.90;;;;;;5066249;28;20449;-54
2023/03/29 13:02:01;;;;;;;9.67;8.17;;;14.50;99.90;;;;;;5068928;28;21095;-55
2023/03/29 13:04:37;;;;;;;12.17;9.00;;;14.20;99.90;;;;;;5072735;28;20480;-54
2023/03/29 13:07:04;;;;;;;10.70;8.83;;;14.20;99.90;;;;;;5072358;28;20481;-56
2023/03/29 13:09:31;;;;;;;12.00;8.30;;;14.10;99.90;;;;;;5072533;28;20511;-55
2023/03/29 13:12:31;;;;;;;12.50;9.30;;;14.00;99.90;;;;;;5072201;28;21006;-56
2023/03/29 13:15:01;;;;;;;12.50;9.23;;;14.00;99.90;;;;;;5035287;28;20561;-57
2023/03/29 13:17:35;;;;;;;11.53;8.90;;;14.00;99.90;;;;;;5070520;28;20788;-56